createdAt,value
2023-01-23T06:00:53.073Z,1.80
2023-01-23T06:05:58.792Z,2.00
2023-01-23T06:11:04.049Z,1.80
2023-01-23T06:16:10.752Z,2.00
2023-01-23T06:26:19.047Z,2.10
2023-01-23T06:31:24.318Z,2.10
2023-01-23T06:36:29.407Z,2.20
2023-01-23T06:41:33.169Z,2.20
2023-01-23T06:46:38.948Z,2.20
2023-01-23T06:51:43.396Z,2.20
2023-01-23T07:01:54.852Z,2.30
2023-01-23T07:06:59.775Z,2.20
2023-01-23T07:12:03.593Z,2.30
2023-01-23T07:17:09.222Z,2.20
2023-01-23T07:27:16.890Z,2.20
2023-01-23T07:32:21.987Z,2.20
2023-01-23T07:37:26.089Z,2.20
2023-01-23T07:42:29.442Z,2.20
2023-01-23T07:47:34.885Z,2.20
2023-01-23T07:57:42.534Z,2.10
2023-01-23T08:02:49.055Z,2.10
2023-01-23T08:08:11.322Z,2.10
2023-01-23T08:13:15.940Z,2.10
2023-01-23T08:18:20.939Z,2.10
2023-01-23T08:23:26.499Z,2.10
2023-01-23T08:28:30.480Z,2.10
2023-01-23T08:33:35.554Z,2.00
2023-01-23T08:43:42.936Z,2.00
2023-01-23T08:48:47.911Z,2.20
2023-01-23T08:53:53.675Z,2.30
2023-01-23T08:58:58.564Z,2.30
2023-01-23T09:04:03.577Z,2.50
2023-01-23T09:14:11.215Z,2.90
2023-01-23T09:19:16.248Z,3.60
2023-01-23T09:24:19.815Z,3.50
2023-01-23T09:29:23.456Z,4.00
2023-01-23T09:34:29.272Z,4.40
2023-01-23T09:39:32.914Z,4.90
2023-01-23T09:44:40.816Z,5.40
2023-01-23T09:49:50.723Z,5.90
2023-01-23T09:54:59.107Z,6.50
2023-01-23T10:00:06.760Z,7.40
2023-01-23T10:05:15.783Z,7.40
2023-01-23T10:10:46.031Z,7.80
2023-01-23T10:16:05.775Z,8.10
2023-01-23T10:21:21.952Z,8.90
2023-01-23T10:26:31.814Z,9.20
2023-01-23T10:31:40.660Z,9.40
2023-01-23T10:36:55.301Z,9.70
2023-01-23T10:42:02.442Z,9.70
2023-01-23T10:47:19.104Z,10.50
2023-01-23T10:52:36.649Z,10.40
2023-01-23T10:57:48.940Z,11.20
2023-01-23T11:02:52.670Z,11.10
2023-01-23T11:07:58.099Z,11.80
2023-01-23T11:18:32.637Z,12.40
2023-01-23T11:23:37.705Z,12.50
2023-01-23T11:28:49.393Z,12.50
2023-01-23T11:33:58.845Z,12.70
2023-01-23T11:39:16.958Z,12.90
2023-01-23T11:44:23.291Z,13.00
2023-01-23T11:49:42.457Z,13.10
2023-01-23T11:55:14.465Z,13.20
2023-01-23T12:00:29.579Z,13.30
2023-01-23T12:05:49.714Z,13.50
2023-01-23T12:11:12.152Z,13.60
2023-01-23T12:16:23.629Z,13.60
2023-01-23T12:21:35.511Z,13.70
2023-01-23T12:26:49.176Z,14.00
2023-01-23T12:32:06.933Z,14.40
2023-01-23T12:37:30.325Z,14.50
2023-01-23T12:42:42.388Z,14.40
2023-01-23T12:47:54.140Z,14.10
2023-01-23T12:53:02.313Z,13.90
2023-01-23T12:58:09.786Z,14.10
2023-01-23T13:03:45.004Z,14.20
2023-01-23T13:09:05.348Z,14.20
2023-01-23T13:14:25.612Z,14.20
2023-01-23T13:19:58.751Z,14.30
2023-01-23T13:25:14.105Z,14.40
2023-01-23T13:30:44.099Z,14.50
2023-01-23T13:35:56.123Z,14.80
2023-01-23T13:41:33.926Z,14.60
2023-01-23T14:30:27.185Z,13.90
2023-01-23T14:35:33.800Z,13.70
2023-01-23T14:46:01.603Z,13.20
2023-01-23T15:11:30.151Z,11.40
2023-01-23T15:16:36.188Z,11.30
2023-01-23T15:37:17.355Z,10.40
2023-01-23T15:42:26.816Z,10.30
2023-01-23T15:52:50.312Z,9.40
2023-01-23T16:03:00.216Z,9.10
2023-01-23T16:08:07.429Z,9.00
2023-01-23T16:13:14.548Z,8.90
2023-01-23T16:23:26.651Z,8.70
2023-01-23T16:38:41.814Z,8.30
2023-01-23T16:54:03.896Z,7.50
2023-01-23T16:59:15.370Z,7.50
2023-01-23T17:04:21.574Z,7.60
2023-01-23T17:09:26.775Z,7.10
2023-01-23T17:14:32.479Z,6.90
2023-01-23T17:19:39.158Z,6.90
2023-01-23T17:24:44.203Z,6.90
2023-01-23T17:29:49.280Z,6.20
2023-01-23T17:34:52.996Z,6.40
2023-01-23T17:39:58.083Z,6.50
2023-01-23T17:45:01.705Z,6.70
2023-01-23T17:55:15.075Z,6.70
2023-01-23T18:00:20.921Z,6.50
2023-01-23T18:05:25.684Z,7.00
2023-01-23T18:10:30.950Z,6.70
2023-01-23T18:15:41.517Z,6.70
2023-01-23T18:20:45.846Z,6.80
2023-01-23T18:25:53.921Z,6.60
2023-01-23T18:31:04.988Z,6.70
2023-01-23T18:36:22.929Z,7.00
2023-01-23T18:41:30.109Z,7.10
2023-01-23T18:46:34.490Z,6.70
2023-01-23T18:51:40.153Z,6.70
2023-01-23T18:56:55.930Z,6.70
2023-01-23T19:02:13.112Z,6.70
2023-01-23T19:07:19.181Z,6.70
2023-01-23T19:12:31.391Z,6.70
2023-01-23T19:17:44.092Z,7.00
2023-01-23T19:23:07.953Z,6.70
2023-01-23T19:28:13.456Z,6.70
2023-01-23T19:38:23.409Z,6.60
2023-01-23T19:43:28.925Z,6.60
2023-01-23T19:58:42.738Z,6.70
2023-01-23T20:13:55.861Z,6.60
2023-01-23T20:24:03.419Z,6.90
2023-01-23T20:29:09.300Z,6.40
2023-01-23T20:44:22.447Z,6.00
2023-01-23T20:59:35.633Z,6.20
2023-01-23T21:09:45.519Z,6.10
2023-01-23T21:14:50.483Z,6.20
2023-01-23T21:24:58.024Z,6.10
2023-01-23T21:30:03.498Z,6.20
2023-01-23T21:35:07.970Z,6.40
2023-01-23T21:45:17.929Z,5.90
2023-01-23T22:00:49.102Z,6.00
2023-01-23T22:16:03.261Z,5.80
2023-01-23T22:26:12.987Z,5.70
2023-01-23T22:31:19.333Z,5.80
